Time;durP1;ratioP1;P1;durP2;ratioP2;P2;SDS_P1;SDS_P2;PMS_P1;PMS_P2;Temp;Humidity;BMP_temperature;BMP_pressure;BME280_temperature;BME280_humidity;BME280_pressure;Samples;Min_cycle;Max_cycle;Signal;HPM_P1;HPM_P2
2023/01/22 00:01:51;;;;;;;15.10;9.03;;;;;;;-141.59;100.00;61776.25;4922231;29;20214;-82
2023/01/22 00:04:20;;;;;;;13.23;8.87;;;;;;;-141.59;100.00;61776.25;4950697;28;20257;-85
2023/01/22 00:06:47;;;;;;;14.33;9.10;;;;;;;-141.59;100.00;61776.25;4925987;29;20210;-83
2023/01/22 00:09:17;;;;;;;13.37;8.77;;;;;;;-141.59;100.00;61776.25;4932269;29;20214;-84
2023/01/22 00:11:44;;;;;;;13.97;9.70;;;;;;;-141.59;100.00;61776.25;4930123;29;20206;-84
2023/01/22 00:14:14;;;;;;;15.50;9.33;;;;;;;-141.59;100.00;61776.25;4923483;29;20206;-82
2023/01/22 00:16:41;;;;;;;13.37;8.67;;;;;;;-141.59;100.00;61776.25;4933620;29;20238;-83
2023/01/22 00:19:09;;;;;;;14.87;9.63;;;;;;;-141.59;100.00;61776.25;4931397;29;20226;-85
2023/01/22 00:21:36;;;;;;;15.00;9.13;;;;;;;-141.59;100.00;61776.25;4945018;28;20210;-84
2023/01/22 00:24:04;;;;;;;13.03;8.87;;;;;;;-141.59;100.00;61776.25;4936568;29;20229;-84
2023/01/22 00:26:31;;;;;;;19.17;10.33;;;;;;;-141.59;100.00;61776.25;4946474;29;20218;-82
2023/01/22 00:28:58;;;;;;;17.60;10.30;;;;;;;-141.59;100.00;61776.25;4925695;29;20199;-83
2023/01/22 00:31:32;;;;;;;15.77;9.80;;;;;;;-141.59;100.00;61776.25;4924241;29;20234;-84
2023/01/22 00:34:01;;;;;;;15.60;9.33;;;;;;;-141.59;100.00;61776.25;4927948;29;20222;-84
2023/01/22 00:36:33;;;;;;;13.80;8.43;;;;;;;-141.59;100.00;61776.25;4927275;29;20202;-83
2023/01/22 00:39:06;;;;;;;12.67;8.03;;;;;;;-141.59;100.00;61776.25;4924360;29;20377;-84
2023/01/22 00:41:36;;;;;;;14.90;9.30;;;;;;;-141.59;100.00;61776.25;4923862;29;20226;-83
2023/01/22 00:44:03;;;;;;;12.77;8.73;;;;;;;-141.59;100.00;61776.25;4937812;28;20249;-83
2023/01/22 00:46:32;;;;;;;11.73;8.17;;;;;;;-141.59;100.00;61776.25;4935685;28;20207;-83
2023/01/22 00:49:01;;;;;;;13.07;8.53;;;;;;;-141.59;100.00;61776.25;4929237;29;20257;-82
2023/01/22 00:51:32;;;;;;;11.50;8.10;;;;;;;-141.59;100.00;61776.25;4921861;29;20207;-83
2023/01/22 00:54:01;;;;;;;11.73;7.70;;;;;;;-141.59;100.00;61776.25;4943137;29;20297;-84
2023/01/22 00:56:28;;;;;;;14.10;8.70;;;;;;;-141.59;100.00;61776.25;4926600;29;20225;-83
2023/01/22 00:59:00;;;;;;;11.60;7.87;;;;;;;-141.59;100.00;61776.25;4935768;29;20214;-83
2023/01/22 01:01:33;;;;;;;11.70;7.70;;;;;;;-141.59;100.00;61776.25;4947005;29;20207;-84
2023/01/22 01:04:01;;;;;;;14.40;8.40;;;;;;;-141.59;100.00;61776.25;4928693;29;20226;-85
2023/01/22 01:06:27;;;;;;;11.83;8.40;;;;;;;-141.59;100.00;61776.25;4928411;29;20222;-83
2023/01/22 01:09:01;;;;;;;13.70;8.03;;;;;;;-141.59;100.00;61776.25;4925665;29;20221;-82
2023/01/22 01:11:29;;;;;;;14.23;8.67;;;;;;;-141.59;100.00;61776.25;4939520;28;20210;-83
2023/01/22 01:13:56;;;;;;;12.47;7.63;;;;;;;-141.59;100.00;61776.25;4938760;29;20194;-84
2023/01/22 01:16:25;;;;;;;13.47;8.67;;;;;;;-141.59;100.00;61776.25;4942639;28;20241;-83
2023/01/22 01:18:58;;;;;;;12.83;7.97;;;;;;;-141.59;100.00;61776.25;4939810;29;20234;-84
2023/01/22 01:21:27;;;;;;;13.20;8.50;;;;;;;-141.59;100.00;61776.25;4921280;29;20213;-83
2023/01/22 01:23:55;;;;;;;12.57;7.90;;;;;;;-141.59;100.00;61776.25;4924147;29;20297;-84
2023/01/22 01:26:23;;;;;;;12.57;8.20;;;;;;;-141.59;100.00;61776.25;4918691;29;20266;-84
2023/01/22 01:28:54;;;;;;;14.33;8.07;;;;;;;-141.59;100.00;61776.25;4945815;28;20214;-83
2023/01/22 01:31:23;;;;;;;13.13;8.27;;;;;;;-141.59;100.00;61776.25;4923835;29;20219;-83
2023/01/22 01:33:50;;;;;;;13.70;8.40;;;;;;;-141.59;100.00;61776.25;4926085;29;20278;-84
2023/01/22 01:36:20;;;;;;;11.70;8.00;;;;;;;-141.59;100.00;61776.25;4925053;29;20222;-84
2023/01/22 01:38:49;;;;;;;12.17;8.23;;;;;;;-141.59;100.00;61776.25;4927539;29;20241;-85
2023/01/22 01:41:20;;;;;;;14.00;8.93;;;;;;;-141.59;100.00;61776.25;4938796;29;20213;-84
2023/01/22 01:44:05;;;;;;;11.67;8.03;;;;;;;-141.59;100.00;61776.25;4939780;28;20210;-85
2023/01/22 01:46:36;;;;;;;12.87;8.10;;;;;;;-141.59;100.00;61776.25;4926171;29;20210;-83
2023/01/22 01:49:05;;;;;;;12.87;8.13;;;;;;;-141.59;100.00;61776.25;4916898;29;20265;-84
2023/01/22 01:51:36;;;;;;;11.83;8.17;;;;;;;-141.59;100.00;61776.25;4920565;29;20214;-83
2023/01/22 01:54:05;;;;;;;13.93;8.57;;;;;;;-141.59;100.00;61776.25;4941070;28;20218;-84
2023/01/22 01:56:39;;;;;;;13.30;8.07;;;;;;;-141.59;100.00;61776.25;4922066;29;20237;-84
2023/01/22 01:59:12;;;;;;;11.20;7.83;;;;;;;-141.59;100.00;61776.25;4928997;29;20305;-85
2023/01/22 02:01:41;;;;;;;12.07;7.83;;;;;;;-141.59;100.00;61776.25;4939154;28;20217;-84
2023/01/22 02:04:09;;;;;;;12.83;8.07;;;;;;;-141.59;100.00;61776.25;4938337;28;20202;-83
2023/01/22 02:06:39;;;;;;;13.70;8.53;;;;;;;-141.59;100.00;61776.25;4936666;28;20214;-84
2023/01/22 02:09:07;;;;;;;11.83;7.53;;;;;;;-141.59;100.00;61776.25;4935771;28;20202;-84
2023/01/22 02:11:34;;;;;;;12.60;7.67;;;;;;;-141.59;100.00;61776.25;4925304;29;20235;-83
2023/01/22 02:14:06;;;;;;;11.43;7.93;;;;;;;-141.59;100.00;61776.25;4939564;29;20206;-83
2023/01/22 02:16:34;;;;;;;11.50;8.00;;;;;;;-141.59;100.00;61776.25;4936669;28;20238;-83
2023/01/22 02:19:01;;;;;;;12.73;8.27;;;;;;;-141.59;100.00;61776.25;4926683;29;20226;-82
2023/01/22 02:21:35;;;;;;;12.47;8.23;;;;;;;-141.59;100.00;61776.25;4922615;29;20217;-83
2023/01/22 02:24:03;;;;;;;11.83;7.20;;;;;;;-141.59;100.00;61776.25;4937659;28;20244;-84
2023/01/22 02:26:31;;;;;;;9.90;7.20;;;;;;;-141.59;100.00;61776.25;4922812;29;20205;-83
2023/01/22 02:28:59;;;;;;;10.97;7.53;;;;;;;-141.59;100.00;61776.25;4938988;28;20199;-83
2023/01/22 02:31:29;;;;;;;11.67;8.07;;;;;;;-141.59;100.00;61776.25;4924231;29;20293;-83
2023/01/22 02:33:56;;;;;;;10.63;6.90;;;;;;;-141.59;100.00;61776.25;4917059;29;20326;-84
2023/01/22 02:36:26;;;;;;;12.80;7.87;;;;;;;-141.59;100.00;61776.25;4925378;29;20198;-84
2023/01/22 02:38:55;;;;;;;10.33;7.00;;;;;;;-141.59;100.00;61776.25;4932376;29;20222;-84
2023/01/22 02:41:27;;;;;;;11.10;7.60;;;;;;;-141.59;100.00;61776.25;4925364;29;20199;-84
2023/01/22 02:43:55;;;;;;;10.40;7.57;;;;;;;-141.59;100.00;61776.25;4938077;29;20213;-83
2023/01/22 02:46:24;;;;;;;11.17;6.70;;;;;;;-141.59;100.00;61776.25;4925198;29;20289;-82
2023/01/22 02:48:51;;;;;;;12.73;7.37;;;;;;;-141.59;100.00;61776.25;4936770;28;20224;-82
2023/01/22 02:51:19;;;;;;;11.37;7.20;;;;;;;-141.59;100.00;61776.25;4926128;29;20203;-83
2023/01/22 02:53:48;;;;;;;10.40;7.33;;;;;;;-141.59;100.00;61776.25;4940143;29;20206;-83
2023/01/22 02:56:20;;;;;;;10.13;7.00;;;;;;;-141.59;100.00;61776.25;4924915;29;20263;-83
2023/01/22 02:58:50;;;;;;;10.20;6.90;;;;;;;-141.59;100.00;61776.25;4914787;29;20217;-86
2023/01/22 03:01:30;;;;;;;10.13;6.93;;;;;;;-141.59;100.00;61776.25;4917814;29;20229;-85
2023/01/22 03:04:00;;;;;;;10.30;7.07;;;;;;;-141.59;100.00;61776.25;4922250;29;20297;-82
2023/01/22 03:06:29;;;;;;;11.17;6.77;;;;;;;-141.59;100.00;61776.25;4940741;28;20246;-85
2023/01/22 03:09:04;;;;;;;11.20;6.93;;;;;;;-141.59;100.00;61776.25;4938369;28;20203;-84
2023/01/22 03:11:40;;;;;;;10.33;7.13;;;;;;;-141.59;100.00;61776.25;4925893;29;20212;-84
2023/01/22 03:22:38;;;;;;;10.13;6.47;;;;;;;-141.59;100.00;61776.25;4919296;29;20195;-82
2023/01/22 03:25:08;;;;;;;8.97;6.50;;;;;;;-141.59;100.00;61776.25;4926286;29;20214;-83
2023/01/22 03:28:07;;;;;;;10.07;6.37;;;;;;;-141.59;100.00;61776.25;4927500;29;20202;-83
2023/01/22 03:30:29;;;;;;;10.47;7.00;;;;;;;-141.59;100.00;61776.25;4931434;29;20243;-83
2023/01/22 03:32:56;;;;;;;9.00;6.23;;;;;;;-141.59;100.00;61776.25;4937771;29;20245;-83
2023/01/22 03:35:24;;;;;;;9.83;6.23;;;;;;;-141.59;100.00;61776.25;4930843;29;20233;-83
2023/01/22 03:38:07;;;;;;;9.97;7.17;;;;;;;-141.59;100.00;61776.25;4929337;29;20210;-83
2023/01/22 03:40:34;;;;;;;9.27;6.30;;;;;;;-141.59;100.00;61776.25;4922398;29;20263;-83
2023/01/22 03:43:03;;;;;;;13.13;7.27;;;;;;;-141.59;100.00;61776.25;4929729;29;20221;-83
2023/01/22 03:45:34;;;;;;;10.67;6.77;;;;;;;-141.59;100.00;61776.25;4931137;29;20304;-83
2023/01/22 03:48:01;;;;;;;8.80;6.47;;;;;;;-141.59;100.00;61776.25;4924527;29;20213;-83
2023/01/22 03:50:37;;;;;;;10.67;6.70;;;;;;;-141.59;100.00;61776.25;4934227;29;20198;-84
2023/01/22 03:53:04;;;;;;;10.13;7.03;;;;;;;-141.59;100.00;61776.25;4941464;28;20210;-85
2023/01/22 03:55:37;;;;;;;8.97;6.37;;;;;;;-141.59;100.00;61776.25;4931662;29;20213;-84
2023/01/22 03:58:06;;;;;;;9.13;6.00;;;;;;;-141.59;100.00;61776.25;4927075;29;20329;-83
2023/01/22 04:00:34;;;;;;;11.00;7.20;;;;;;;-141.59;100.00;61776.25;4937508;29;20230;-83
2023/01/22 04:03:09;;;;;;;10.30;6.93;;;;;;;-141.59;100.00;61776.25;4926354;29;20215;-84
2023/01/22 04:05:40;;;;;;;10.13;7.03;;;;;;;-141.59;100.00;61776.25;4939760;29;20231;-83
2023/01/22 04:08:07;;;;;;;10.00;6.73;;;;;;;-141.59;100.00;61776.25;4924271;29;20301;-84
2023/01/22 04:10:42;;;;;;;9.90;6.77;;;;;;;-141.59;100.00;61776.25;4933130;29;20278;-83
2023/01/22 04:13:10;;;;;;;13.13;7.43;;;;;;;-141.59;100.00;61776.25;4949031;28;20233;-83
2023/01/22 04:15:42;;;;;;;9.80;6.50;;;;;;;-141.59;100.00;61776.25;4927741;29;20207;-83
2023/01/22 04:18:17;;;;;;;10.30;6.83;;;;;;;-141.59;100.00;61776.25;4922070;29;20207;-83
2023/01/22 04:21:08;;;;;;;10.53;6.87;;;;;;;-141.59;100.00;61776.25;4922920;29;20233;-82
2023/01/22 04:23:42;;;;;;;11.47;7.37;;;;;;;-141.59;100.00;61776.25;4929088;29;20265;-83
2023/01/22 04:26:13;;;;;;;10.30;7.00;;;;;;;-141.59;100.00;61776.25;4936187;29;20205;-82
2023/01/22 04:28:41;;;;;;;10.33;6.67;;;;;;;-141.59;100.00;61776.25;4931330;29;20210;-83
2023/01/22 04:31:09;;;;;;;10.10;6.90;;;;;;;-141.59;100.00;61776.25;4932295;29;20210;-83
2023/01/22 04:33:42;;;;;;;10.37;7.50;;;;;;;-141.59;100.00;61776.25;4929943;29;20230;-83
2023/01/22 04:36:13;;;;;;;10.87;6.73;;;;;;;-141.59;100.00;61776.25;4929888;29;20210;-83
2023/01/22 04:38:43;;;;;;;13.70;8.03;;;;;;;-141.59;100.00;61776.25;4929457;29;20217;-83
2023/01/22 04:41:10;;;;;;;11.30;7.50;;;;;;;-141.59;100.00;61776.25;4929492;29;20237;-82
2023/01/22 04:43:38;;;;;;;12.00;7.47;;;;;;;-141.59;100.00;61776.25;4931349;29;20217;-83
2023/01/22 04:46:07;;;;;;;12.63;7.60;;;;;;;-141.59;100.00;61776.25;4936787;29;20213;-84
2023/01/22 04:48:34;;;;;;;10.87;7.37;;;;;;;-141.59;100.00;61776.25;4946375;28;20212;-82
2023/01/22 04:51:09;;;;;;;12.17;7.97;;;;;;;-141.59;100.00;61776.25;4930709;29;20197;-84
2023/01/22 04:53:36;;;;;;;11.90;7.30;;;;;;;-141.59;100.00;61776.25;4928072;29;20214;-83
2023/01/22 04:56:05;;;;;;;11.47;7.37;;;;;;;-141.59;100.00;61776.25;4920109;29;20207;-82
2023/01/22 04:58:32;;;;;;;10.40;6.90;;;;;;;-141.59;100.00;61776.25;4941155;28;20206;-83
2023/01/22 05:01:00;;;;;;;13.10;6.80;;;;;;;-141.59;100.00;61776.25;4931742;29;20222;-83
2023/01/22 05:03:29;;;;;;;11.27;7.00;;;;;;;-141.59;100.00;61776.25;4930357;29;20241;-84
2023/01/22 05:05:56;;;;;;;11.37;7.03;;;;;;;-141.59;100.00;61776.25;4923376;29;20206;-83
2023/01/22 05:08:24;;;;;;;11.40;7.50;;;;;;;-141.59;100.00;61776.25;4923223;29;20257;-83
2023/01/22 05:10:51;;;;;;;10.60;7.33;;;;;;;-141.59;100.00;61776.25;4925950;29;20206;-81
2023/01/22 05:13:24;;;;;;;10.03;6.77;;;;;;;-141.59;100.00;61776.25;4941118;28;20277;-82
2023/01/22 05:15:52;;;;;;;11.20;7.40;;;;;;;-141.59;100.00;61776.25;4924305;29;20234;-82
2023/01/22 05:18:19;;;;;;;11.23;7.20;;;;;;;-141.59;100.00;61776.25;4929497;29;20201;-85
2023/01/22 05:20:54;;;;;;;12.10;7.47;;;;;;;-141.59;100.00;61776.25;4927262;29;20310;-83
2023/01/22 05:23:28;;;;;;;10.53;7.20;;;;;;;-141.59;100.00;61776.25;4932607;29;20419;-82
2023/01/22 05:25:56;;;;;;;11.43;7.57;;;;;;;-141.59;100.00;61776.25;4931057;29;20230;-84
2023/01/22 05:28:39;;;;;;;12.80;7.87;;;;;;;-141.59;100.00;61776.25;4929572;29;20212;-82
2023/01/22 05:31:29;;;;;;;12.00;7.57;;;;;;;-141.59;100.00;61776.25;4925732;29;20293;-82
2023/01/22 05:34:00;;;;;;;13.47;9.00;;;;;;;-141.59;100.00;61776.25;4927029;29;20233;-83
2023/01/22 05:36:30;;;;;;;15.50;8.37;;;;;;;-141.59;100.00;61776.25;4932044;29;20222;-83
2023/01/22 05:39:06;;;;;;;13.03;8.70;;;;;;;-141.59;100.00;61776.25;4931159;29;20208;-83
2023/01/22 05:41:34;;;;;;;12.77;8.37;;;;;;;-141.59;100.00;61776.25;4931414;29;20279;-83
2023/01/22 05:44:07;;;;;;;13.83;8.83;;;;;;;-141.59;100.00;61776.25;4936230;29;20296;-81
2023/01/22 05:46:40;;;;;;;13.43;8.37;;;;;;;-141.59;100.00;61776.25;4930924;29;20316;-82
2023/01/22 05:49:20;;;;;;;12.20;8.00;;;;;;;-141.59;100.00;61776.25;4931822;29;20223;-83
2023/01/22 05:51:53;;;;;;;13.30;8.73;;;;;;;-141.59;100.00;61776.25;4927611;29;20274;-84
2023/01/22 05:54:20;;;;;;;11.63;8.03;;;;;;;-141.59;100.00;61776.25;4924159;29;20195;-82
2023/01/22 05:56:51;;;;;;;12.67;8.53;;;;;;;-141.59;100.00;61776.25;4930761;29;20202;-82
2023/01/22 05:59:21;;;;;;;14.30;8.30;;;;;;;-141.59;100.00;61776.25;4926076;29;20228;-84
2023/01/22 06:01:55;;;;;;;13.00;8.53;;;;;;;-141.59;100.00;61776.25;4920529;29;20218;-83
2023/01/22 06:04:23;;;;;;;13.57;8.67;;;;;;;-141.59;100.00;61776.25;4936324;28;20210;-83
2023/01/22 06:06:52;;;;;;;12.87;8.40;;;;;;;-141.59;100.00;61776.25;4933135;29;20305;-83
2023/01/22 06:09:21;;;;;;;12.60;7.87;;;;;;;-141.59;100.00;61776.25;4929640;29;20210;-83
2023/01/22 06:11:48;;;;;;;12.37;7.70;;;;;;;-141.59;100.00;61776.25;4927862;29;20222;-83
2023/01/22 06:14:19;;;;;;;12.00;8.03;;;;;;;-141.59;100.00;61776.25;4926473;29;20274;-84
2023/01/22 06:16:46;;;;;;;13.77;8.37;;;;;;;-141.59;100.00;61776.25;4922796;29;20242;-82
2023/01/22 06:19:36;;;;;;;12.40;8.47;;;;;;;-141.59;100.00;61776.25;4913674;29;20354;-83
2023/01/22 06:22:12;;;;;;;12.87;8.90;;;;;;;-141.59;100.00;61776.25;4923103;29;20249;-82
2023/01/22 06:24:46;;;;;;;14.37;8.57;;;;;;;-141.59;100.00;61776.25;4923464;29;20210;-83
2023/01/22 06:27:17;;;;;;;14.03;9.30;;;;;;;-141.59;100.00;61776.25;4926885;29;20234;-82
2023/01/22 06:29:57;;;;;;;16.27;9.63;;;;;;;-141.59;100.00;61776.25;4939174;29;20238;-83
2023/01/22 06:32:26;;;;;;;15.33;8.97;;;;;;;-141.59;100.00;61776.25;4926332;29;20210;-82
2023/01/22 06:34:53;;;;;;;14.53;8.73;;;;;;;-141.59;100.00;61776.25;4922253;29;20231;-82
2023/01/22 06:37:27;;;;;;;14.20;8.97;;;;;;;-141.59;100.00;61776.25;4923664;29;20269;-83
2023/01/22 06:39:55;;;;;;;13.23;8.13;;;;;;;-141.59;100.00;61776.25;4920854;29;20224;-82
2023/01/22 06:42:27;;;;;;;11.90;8.30;;;;;;;-141.59;100.00;61776.25;4927861;29;20206;-84
2023/01/22 06:44:57;;;;;;;13.27;8.53;;;;;;;-141.59;100.00;61776.25;4924722;29;20451;-83
2023/01/22 06:47:29;;;;;;;13.43;8.77;;;;;;;-141.59;100.00;61776.25;4920166;29;20295;-82
2023/01/22 06:49:56;;;;;;;13.40;8.77;;;;;;;-141.59;100.00;61776.25;4935445;29;20218;-83
2023/01/22 06:52:30;;;;;;;14.83;9.47;;;;;;;-141.59;100.00;61776.25;4921705;29;20352;-83
2023/01/22 06:55:02;;;;;;;14.27;8.63;;;;;;;-141.59;100.00;61776.25;4925179;29;20214;-81
2023/01/22 06:57:29;;;;;;;12.87;8.50;;;;;;;-141.59;100.00;61776.25;4924922;29;20209;-82
2023/01/22 06:59:59;;;;;;;13.33;8.50;;;;;;;-141.59;100.00;61776.25;4924554;29;20297;-82
2023/01/22 07:02:26;;;;;;;13.60;9.17;;;;;;;-141.59;100.00;61776.25;4926509;29;20216;-84
2023/01/22 07:04:53;;;;;;;13.93;9.03;;;;;;;-141.59;100.00;61776.25;4923316;29;20211;-82
2023/01/22 07:07:20;;;;;;;13.20;8.47;;;;;;;-141.59;100.00;61776.25;4920125;29;20273;-83
2023/01/22 07:09:51;;;;;;;15.50;9.67;;;;;;;-141.59;100.00;61776.25;4924756;29;20210;-83
2023/01/22 07:12:18;;;;;;;14.63;9.30;;;;;;;-141.59;100.00;61776.25;4926805;29;20209;-82
2023/01/22 07:14:45;;;;;;;14.10;8.50;;;;;;;-141.59;100.00;61776.25;4928585;29;20214;-83
2023/01/22 07:17:13;;;;;;;13.93;8.97;;;;;;;-141.59;100.00;61776.25;4924792;29;20238;-83
2023/01/22 07:19:40;;;;;;;16.40;10.40;;;;;;;-141.59;100.00;61776.25;4924891;29;20229;-83
2023/01/22 07:22:11;;;;;;;16.57;9.47;;;;;;;-141.59;100.00;61776.25;4927525;29;20230;-83
2023/01/22 07:24:41;;;;;;;15.53;10.03;;;;;;;-141.59;100.00;61776.25;4941482;29;20226;-83
2023/01/22 07:27:09;;;;;;;17.03;10.27;;;;;;;-141.59;100.00;61776.25;4927158;29;20290;-82
2023/01/22 07:29:36;;;;;;;16.23;10.70;;;;;;;-141.59;100.00;61776.25;4931041;29;20213;-83
2023/01/22 07:32:09;;;;;;;17.87;11.07;;;;;;;-141.59;100.00;61776.25;4929941;29;20202;-83
2023/01/22 07:34:40;;;;;;;20.50;11.70;;;;;;;-141.59;100.00;61776.25;4924746;29;20229;-82
2023/01/22 07:37:09;;;;;;;21.27;11.90;;;;;;;-141.59;100.00;61776.25;4927356;29;20215;-83
2023/01/22 07:39:36;;;;;;;18.40;10.23;;;;;;;-141.59;100.00;61776.25;4930171;29;20206;-83
2023/01/22 07:42:03;;;;;;;19.27;11.10;;;;;;;-141.59;100.00;61776.25;4925891;29;20276;-83
2023/01/22 07:44:32;;;;;;;19.73;11.13;;;;;;;-141.59;100.00;61776.25;4926873;29;20245;-83
2023/01/22 07:46:59;;;;;;;19.13;10.67;;;;;;;-141.59;100.00;61776.25;4931551;28;20222;-82
2023/01/22 07:49:33;;;;;;;36.50;17.30;;;;;;;-141.59;100.00;61776.25;4924216;29;20201;-83
2023/01/22 07:52:00;;;;;;;77.83;33.90;;;;;;;-141.59;100.00;61776.25;4923727;29;20300;-83
2023/01/22 07:54:27;;;;;;;40.03;19.00;;;;;;;-141.59;100.00;61776.25;4926440;29;20203;-83
2023/01/22 07:56:58;;;;;;;27.50;14.20;;;;;;;-141.59;100.00;61776.25;4925327;29;20219;-82
2023/01/22 07:59:25;;;;;;;19.30;11.50;;;;;;;-141.59;100.00;61776.25;4942686;28;20209;-82
2023/01/22 08:01:56;;;;;;;17.50;10.83;;;;;;;-141.59;100.00;61776.25;4923605;29;20237;-83
2023/01/22 08:04:27;;;;;;;20.97;11.53;;;;;;;-141.59;100.00;61776.25;4935005;28;20213;-83
2023/01/22 08:06:53;;;;;;;19.87;11.73;;;;;;;-141.59;100.00;61776.25;4926376;29;20301;-83
2023/01/22 08:09:24;;;;;;;19.67;11.47;;;;;;;-141.59;100.00;61776.25;4922989;29;20256;-83
2023/01/22 08:11:52;;;;;;;17.83;10.67;;;;;;;-141.59;100.00;61776.25;4924992;29;20206;-83
2023/01/22 08:14:22;;;;;;;17.53;11.23;;;;;;;-141.59;100.00;61776.25;4931190;29;20305;-84
2023/01/22 08:16:49;;;;;;;17.60;11.07;;;;;;;-141.59;100.00;61776.25;4936523;29;20234;-83
2023/01/22 08:19:17;;;;;;;20.30;11.13;;;;;;;-141.59;100.00;61776.25;4931834;29;20214;-84
2023/01/22 08:21:45;;;;;;;17.00;11.37;;;;;;;-141.59;100.00;61776.25;4947058;28;20249;-83
2023/01/22 08:24:14;;;;;;;18.20;11.87;;;;;;;-141.59;100.00;61776.25;4918558;29;20202;-83
2023/01/22 08:26:47;;;;;;;18.73;11.27;;;;;;;-141.59;100.00;61776.25;4946163;29;20214;-84
2023/01/22 08:29:17;;;;;;;18.60;11.57;;;;;;;-141.59;100.00;61776.25;4946761;29;20205;-82
2023/01/22 08:31:51;;;;;;;17.17;11.13;;;;;;;-141.59;100.00;61776.25;4931052;29;20225;-83
2023/01/22 08:34:22;;;;;;;19.23;12.57;;;;;;;-141.59;100.00;61776.25;4944977;29;20357;-83
2023/01/22 08:36:53;;;;;;;18.20;11.27;;;;;;;-141.59;100.00;61776.25;4948127;28;20214;-83
2023/01/22 08:39:20;;;;;;;17.23;11.13;;;;;;;-141.59;100.00;61776.25;4943162;28;20202;-82
2023/01/22 08:41:47;;;;;;;17.63;11.20;;;;;;;-141.59;100.00;61776.25;4950476;28;20221;-83
2023/01/22 08:44:14;;;;;;;16.87;10.93;;;;;;;-141.59;100.00;61776.25;4941380;28;20281;-83
2023/01/22 08:46:43;;;;;;;21.47;11.87;;;;;;;-141.59;100.00;61776.25;4945261;29;20198;-83
2023/01/22 08:49:10;;;;;;;17.03;11.33;;;;;;;-141.59;100.00;61776.25;4931116;29;20206;-83
2023/01/22 08:51:38;;;;;;;22.67;14.03;;;;;;;-141.59;100.00;61776.25;4927880;29;20644;-83
2023/01/22 08:54:08;;;;;;;25.00;13.17;;;;;;;-141.59;100.00;61776.25;4928030;29;20210;-83
2023/01/22 08:56:38;;;;;;;19.93;12.27;;;;;;;-141.59;100.00;61776.25;4929088;29;20300;-82
2023/01/22 08:59:07;;;;;;;20.43;12.40;;;;;;;-141.59;100.00;61776.25;4929387;29;20215;-82
2023/01/22 09:01:36;;;;;;;23.53;13.17;;;;;;;-141.59;100.00;61776.25;4928485;29;20260;-84
2023/01/22 09:04:10;;;;;;;24.30;13.13;;;;;;;-141.59;100.00;61776.25;4933054;29;20218;-85
2023/01/22 09:06:39;;;;;;;33.33;18.03;;;;;;;-141.59;100.00;61776.25;4928396;29;20209;-84
2023/01/22 09:09:08;;;;;;;23.80;13.70;;;;;;;-141.59;100.00;61776.25;4930542;29;20277;-85
2023/01/22 09:11:35;;;;;;;19.70;11.80;;;;;;;-141.59;100.00;61776.25;4932521;29;20207;-86
2023/01/22 09:14:02;;;;;;;18.50;11.80;;;;;;;-141.59;100.00;61776.25;4925756;29;20203;-83
2023/01/22 09:16:31;;;;;;;16.70;10.30;;;;;;;-141.59;100.00;61776.25;4929525;29;20234;-84
2023/01/22 09:18:59;;;;;;;16.40;10.47;;;;;;;-141.59;100.00;61776.25;4933617;29;20220;-83
2023/01/22 09:21:26;;;;;;;16.73;9.93;;;;;;;-141.59;100.00;61776.25;4927617;29;20242;-82
2023/01/22 09:23:54;;;;;;;17.33;10.63;;;;;;;-141.59;100.00;61776.25;4934836;28;20208;-82
2023/01/22 09:26:21;;;;;;;16.60;10.30;;;;;;;-141.59;100.00;61776.25;4944719;28;20210;-83
2023/01/22 09:28:48;;;;;;;13.83;9.17;;;;;;;-141.59;100.00;61776.25;4927134;29;20289;-83
2023/01/22 09:31:16;;;;;;;16.40;10.63;;;;;;;-141.59;100.00;61776.25;4924881;29;20216;-83
2023/01/22 09:33:43;;;;;;;16.70;10.10;;;;;;;-141.59;100.00;61776.25;4933625;29;20230;-83
2023/01/22 09:36:12;;;;;;;15.07;9.93;;;;;;;-141.59;100.00;61776.25;4928328;29;20225;-84
2023/01/22 09:38:40;;;;;;;13.27;8.93;;;;;;;-141.59;100.00;61776.25;4931225;29;20210;-83
2023/01/22 09:41:20;;;;;;;14.90;9.77;;;;;;;-141.59;100.00;61776.25;4929789;29;20229;-83
2023/01/22 09:43:52;;;;;;;15.63;9.57;;;;;;;-141.59;100.00;61776.25;4927712;29;20214;-81
2023/01/22 09:46:27;;;;;;;13.53;8.93;;;;;;;-141.59;100.00;61776.25;4929271;29;20254;-84
2023/01/22 09:49:02;;;;;;;13.37;9.00;;;;;;;-141.59;100.00;61776.25;4946087;28;20233;-83
2023/01/22 09:51:32;;;;;;;14.40;8.50;;;;;;;-141.59;100.00;61776.25;4940271;28;20301;-84
2023/01/22 09:54:06;;;;;;;15.70;9.67;;;;;;;-141.59;100.00;61776.25;4930362;29;20206;-83
2023/01/22 09:56:42;;;;;;;13.40;8.70;;;;;;;-141.59;100.00;61776.25;4934159;29;20225;-83
2023/01/22 09:59:17;;;;;;;13.43;8.77;;;;;;;-141.59;100.00;61776.25;4931761;29;20235;-82
2023/01/22 10:01:49;;;;;;;14.93;9.87;;;;;;;-141.59;100.00;61776.25;4930307;29;20256;-82
2023/01/22 10:04:29;;;;;;;14.20;9.50;;;;;;;-141.59;100.00;61776.25;4928297;29;20256;-84
2023/01/22 10:07:01;;;;;;;14.40;9.20;;;;;;;-141.59;100.00;61776.25;4931600;29;20205;-83
2023/01/22 10:09:32;;;;;;;12.87;8.37;;;;;;;-141.59;100.00;61776.25;4944863;29;20303;-83
2023/01/22 10:12:13;;;;;;;12.37;7.87;;;;;;;-141.59;100.00;61776.25;4926238;29;20254;-82
2023/01/22 10:14:44;;;;;;;13.37;8.37;;;;;;;-141.59;100.00;61776.25;4921435;29;20231;-82
2023/01/22 10:17:21;;;;;;;14.77;9.20;;;;;;;-141.59;100.00;61776.25;4924276;29;20239;-84
2023/01/22 10:19:57;;;;;;;12.53;8.03;;;;;;;-141.59;100.00;61776.25;4930587;29;20305;-83
2023/01/22 10:22:27;;;;;;;12.97;8.10;;;;;;;-141.59;100.00;61776.25;4928463;29;20229;-83
2023/01/22 10:24:55;;;;;;;12.07;8.10;;;;;;;-141.59;100.00;61776.25;4932338;29;20217;-83
2023/01/22 10:27:38;;;;;;;11.87;7.57;;;;;;;-141.59;100.00;61776.25;4934847;29;20218;-83
2023/01/22 10:30:17;;;;;;;12.40;8.13;;;;;;;-141.59;100.00;61776.25;4934650;28;20209;-82
2023/01/22 10:33:01;;;;;;;13.07;8.10;;;;;;;-141.59;100.00;61776.25;4924542;29;20203;-83
2023/01/22 10:35:30;;;;;;;12.97;8.33;;;;;;;-141.59;100.00;61776.25;4922702;29;20233;-84
2023/01/22 10:37:59;;;;;;;11.67;7.93;;;;;;;-141.59;100.00;61776.25;4936602;29;20214;-83
2023/01/22 10:40:29;;;;;;;12.00;7.97;;;;;;;-141.59;100.00;61776.25;4926649;29;20236;-84
2023/01/22 10:43:03;;;;;;;11.23;7.53;;;;;;;-141.59;100.00;61776.25;4939906;29;20229;-84
2023/01/22 10:45:34;;;;;;;11.93;7.23;;;;;;;-141.59;100.00;61776.25;4931876;29;20207;-85
2023/01/22 10:48:12;;;;;;;9.17;6.80;;;;;;;-141.59;100.00;61776.25;4919016;29;20210;-84
2023/01/22 10:50:39;;;;;;;12.77;7.80;;;;;;;-141.59;100.00;61776.25;4937955;29;20209;-84
2023/01/22 10:53:19;;;;;;;10.97;7.77;;;;;;;-141.59;100.00;61776.25;4927568;29;20199;-84
2023/01/22 10:56:03;;;;;;;;;;;;;;;;;;;;;
2023/01/22 10:58:38;;;;;;;12.57;8.20;;;;;;;-141.59;100.00;61776.25;4933565;29;20252;-83
2023/01/22 11:01:20;;;;;;;11.23;7.43;;;;;;;-141.59;100.00;61776.25;4946290;29;20221;-84
2023/01/22 11:03:47;;;;;;;13.50;8.60;;;;;;;-141.59;100.00;61776.25;4921909;29;20210;-82
2023/01/22 11:06:18;;;;;;;12.63;7.73;;;;;;;-141.59;100.00;61776.25;4931656;29;20212;-83
2023/01/22 11:08:52;;;;;;;11.77;8.00;;;;;;;-141.59;100.00;61776.25;4925495;29;20224;-83
2023/01/22 11:11:28;;;;;;;12.53;8.57;;;;;;;-141.59;100.00;61776.25;4927378;29;20211;-84
2023/01/22 11:14:01;;;;;;;12.17;8.30;;;;;;;-141.59;100.00;61776.25;4923585;29;20277;-84
2023/01/22 11:16:34;;;;;;;12.97;8.00;;;;;;;-141.59;100.00;61776.25;4924098;29;20376;-83
2023/01/22 11:19:06;;;;;;;11.90;8.17;;;;;;;-141.59;100.00;61776.25;4941877;28;20207;-83
2023/01/22 11:21:36;;;;;;;12.73;8.43;;;;;;;-141.59;100.00;61776.25;4937656;29;20254;-83
2023/01/22 11:24:12;;;;;;;13.30;9.53;;;;;;;-141.59;100.00;61776.25;4940150;28;20296;-83
2023/01/22 11:26:58;;;;;;;11.57;7.70;;;;;;;-141.59;100.00;61776.25;4937309;29;20226;-83